Time;durP1;ratioP1;P1;durP2;ratioP2;P2;SDS_P1;SDS_P2;PMS_P1;PMS_P2;Temp;Humidity;BMP_temperature;BMP_pressure;BME280_temperature;BME280_humidity;BME280_pressure;Samples;Min_cycle;Max_cycle;Signal;HPM_P1;HPM_P2
2022/12/10 00:02:20;;;;;;;16.50;13.33;;;4.30;91.30;;;;;;953005;145;27379;-81
2022/12/10 00:04:47;;;;;;;16.87;12.53;;;4.30;91.30;;;;;;936704;149;27415;-81
2022/12/10 00:07:14;;;;;;;17.20;14.23;;;4.30;91.30;;;;;;943281;148;27366;-81
2022/12/10 00:09:40;;;;;;;16.90;13.30;;;4.20;91.20;;;;;;943581;148;27357;-81
2022/12/10 00:12:07;;;;;;;16.33;12.80;;;4.20;91.20;;;;;;936633;149;27338;-81
2022/12/10 00:14:33;;;;;;;17.57;13.47;;;4.20;91.20;;;;;;957872;145;27433;-81
2022/12/10 00:17:00;;;;;;;15.87;12.43;;;4.20;91.10;;;;;;935567;149;27368;-81
2022/12/10 00:19:26;;;;;;;15.57;11.77;;;4.10;91.10;;;;;;937698;149;27314;-81
2022/12/10 00:21:53;;;;;;;17.60;13.03;;;4.10;91.20;;;;;;950431;148;27309;-81
2022/12/10 00:24:20;;;;;;;17.30;13.33;;;4.00;91.30;;;;;;936764;149;27431;-81
2022/12/10 00:26:46;;;;;;;13.97;12.07;;;4.00;91.30;;;;;;939376;148;27344;-81
2022/12/10 00:29:13;;;;;;;14.20;12.13;;;4.00;91.30;;;;;;952572;148;27371;-81
2022/12/10 00:31:39;;;;;;;16.53;13.03;;;3.90;91.40;;;;;;955711;146;27413;-81
2022/12/10 00:34:06;;;;;;;15.57;12.40;;;3.90;91.40;;;;;;938543;148;27289;-81
2022/12/10 00:36:33;;;;;;;18.27;13.37;;;3.90;91.40;;;;;;940334;148;27307;-81
2022/12/10 00:38:59;;;;;;;16.80;13.03;;;3.90;91.40;;;;;;936504;149;27848;-81
2022/12/10 00:41:26;;;;;;;18.53;13.17;;;3.90;91.40;;;;;;945115;148;27464;-81
2022/12/10 00:43:52;;;;;;;17.97;13.80;;;3.80;91.40;;;;;;941525;148;27348;-81
2022/12/10 00:46:19;;;;;;;16.27;12.33;;;3.80;91.40;;;;;;934393;149;27343;-81
2022/12/10 00:48:46;;;;;;;18.57;14.47;;;3.80;91.40;;;;;;953070;145;27304;-81
2022/12/10 00:51:12;;;;;;;17.00;13.27;;;3.80;91.40;;;;;;941669;147;27389;-81
2022/12/10 00:53:39;;;;;;;15.83;12.00;;;3.70;91.40;;;;;;917762;150;27479;-81
2022/12/10 00:56:05;;;;;;;15.97;12.67;;;3.70;91.50;;;;;;941239;147;27347;-80
2022/12/10 00:58:32;;;;;;;18.30;13.60;;;3.70;91.50;;;;;;941473;147;27339;-81
2022/12/10 01:01:19;;;;;;;15.87;11.93;;;3.60;91.50;;;;;;919708;150;27301;-80
2022/12/10 01:03:46;;;;;;;16.90;12.83;;;3.60;91.60;;;;;;941404;149;27295;-81
2022/12/10 01:06:13;;;;;;;16.07;12.20;;;3.60;91.60;;;;;;919552;150;27475;-80
2022/12/10 01:08:39;;;;;;;16.53;13.43;;;3.60;91.60;;;;;;942312;147;27400;-81
2022/12/10 01:11:06;;;;;;;14.87;12.20;;;3.50;91.70;;;;;;917638;150;27349;-81
2022/12/10 01:13:32;;;;;;;16.87;13.13;;;3.50;91.70;;;;;;941636;147;27404;-80
2022/12/10 01:16:02;;;;;;;17.17;12.37;;;3.50;91.80;;;;;;920478;150;27315;-80
2022/12/10 01:18:28;;;;;;;19.97;13.53;;;3.50;91.80;;;;;;941547;147;27397;-81
2022/12/10 01:20:55;;;;;;;15.93;12.17;;;3.50;91.90;;;;;;920062;150;27446;-81
2022/12/10 01:23:21;;;;;;;18.80;13.57;;;3.50;92.00;;;;;;942577;147;27411;-81
2022/12/10 01:25:48;;;;;;;12.83;11.47;;;3.40;92.00;;;;;;942920;147;27277;-80
2022/12/10 01:28:14;;;;;;;17.40;12.93;;;3.40;92.10;;;;;;919152;150;27382;-80
2022/12/10 01:30:41;;;;;;;14.97;11.87;;;3.40;92.20;;;;;;933927;149;27373;-81
2022/12/10 01:33:08;;;;;;;17.17;12.40;;;3.40;92.10;;;;;;934062;149;27442;-80
2022/12/10 01:35:34;;;;;;;16.70;12.53;;;3.40;92.10;;;;;;934175;149;27656;-80
2022/12/10 01:38:01;;;;;;;17.33;12.23;;;3.40;92.20;;;;;;933392;152;27335;-81
2022/12/10 01:40:27;;;;;;;16.07;12.13;;;3.40;92.10;;;;;;934444;149;27332;-81
2022/12/10 01:42:54;;;;;;;15.83;12.57;;;3.40;92.10;;;;;;942717;147;27430;-81
2022/12/10 01:45:20;;;;;;;15.63;12.33;;;3.40;92.00;;;;;;925619;150;27370;-80
2022/12/10 01:47:47;;;;;;;16.80;12.97;;;3.30;91.90;;;;;;918485;150;27314;-81
2022/12/10 01:50:15;;;;;;;15.10;11.90;;;3.30;91.80;;;;;;935572;149;27343;-80
2022/12/10 01:52:40;;;;;;;16.07;13.23;;;3.30;91.70;;;;;;938932;148;27347;-80
2022/12/10 01:55:07;;;;;;;17.20;12.30;;;3.20;91.70;;;;;;936350;149;27326;-80
2022/12/10 01:57:33;;;;;;;14.37;11.70;;;3.20;91.70;;;;;;934474;149;27378;-80
2022/12/10 02:00:00;;;;;;;15.90;12.40;;;3.10;91.70;;;;;;954253;146;27436;-80
2022/12/10 02:02:29;;;;;;;16.47;13.53;;;3.10;91.60;;;;;;955134;146;27320;-80
2022/12/10 02:04:59;;;;;;;17.40;13.00;;;3.00;91.60;;;;;;942733;148;27317;-80
2022/12/10 02:07:28;;;;;;;14.83;12.00;;;3.00;91.50;;;;;;936475;149;27403;-80
2022/12/10 02:10:07;;;;;;;15.83;11.67;;;2.90;91.50;;;;;;936546;146;27492;-80
2022/12/10 02:12:39;;;;;;;14.10;10.93;;;2.80;91.50;;;;;;917193;149;27327;-80
2022/12/10 02:15:27;;;;;;;15.63;11.57;;;2.70;91.50;;;;;;949829;148;27334;-80
2022/12/10 02:18:14;;;;;;;16.33;11.20;;;2.70;91.70;;;;;;935915;150;27307;-80
2022/12/10 02:20:57;;;;;;;16.33;11.10;;;2.60;91.40;;;;;;947046;148;27347;-80
2022/12/10 02:23:25;;;;;;;15.03;11.43;;;2.50;91.50;;;;;;923593;151;27335;-80
2022/12/10 02:26:16;;;;;;;15.23;11.57;;;2.40;91.60;;;;;;954827;146;27336;-80
2022/12/10 02:28:48;;;;;;;14.00;10.43;;;2.30;91.60;;;;;;952463;146;27420;-80
2022/12/10 02:31:15;;;;;;;15.00;11.23;;;2.30;91.70;;;;;;946617;149;27463;-80
2022/12/10 02:33:41;;;;;;;15.50;11.40;;;2.20;91.80;;;;;;952854;148;27381;-80
2022/12/10 02:36:08;;;;;;;16.30;12.50;;;2.20;91.90;;;;;;953365;145;27400;-80
2022/12/10 02:38:35;;;;;;;16.77;12.20;;;2.10;92.10;;;;;;940064;148;27316;-80
2022/12/10 02:41:07;;;;;;;13.77;11.13;;;2.00;92.20;;;;;;948545;148;27305;-80
2022/12/10 02:43:34;;;;;;;15.33;11.50;;;2.00;92.30;;;;;;936010;149;27374;-80
2022/12/10 02:46:00;;;;;;;15.93;11.97;;;2.00;92.50;;;;;;938296;149;27787;-80
2022/12/10 02:48:27;;;;;;;15.60;11.47;;;1.90;92.50;;;;;;952795;146;28337;-80
2022/12/10 02:50:53;;;;;;;16.10;10.90;;;1.90;92.70;;;;;;954913;146;27287;-80
2022/12/10 02:53:20;;;;;;;15.67;11.57;;;1.90;92.90;;;;;;954378;146;27425;-80
2022/12/10 02:56:05;;;;;;;14.17;10.73;;;1.80;93.00;;;;;;952488;149;27315;-80
2022/12/10 02:58:52;;;;;;;14.00;11.00;;;1.80;93.10;;;;;;947957;149;27382;-80
2022/12/10 03:01:37;;;;;;;15.33;11.80;;;1.80;93.10;;;;;;937986;149;27471;-79
2022/12/10 03:04:04;;;;;;;18.57;12.57;;;1.80;93.00;;;;;;953510;148;27654;-78
2022/12/10 03:06:33;;;;;;;15.53;11.93;;;1.80;93.10;;;;;;914341;151;27353;-81
2022/12/10 03:09:00;;;;;;;14.60;11.27;;;1.70;93.10;;;;;;932747;149;27408;-81
2022/12/10 03:11:26;;;;;;;14.87;11.23;;;1.70;93.20;;;;;;935185;149;27833;-81
2022/12/10 03:14:12;;;;;;;15.77;12.17;;;1.70;93.30;;;;;;954935;145;27352;-81
2022/12/10 03:16:44;;;;;;;16.77;12.07;;;1.60;93.30;;;;;;954766;145;27375;-79
2022/12/10 03:19:19;;;;;;;16.63;11.97;;;1.60;93.30;;;;;;953208;146;27268;-79
2022/12/10 03:21:46;;;;;;;15.13;11.37;;;1.50;93.20;;;;;;954061;146;27259;-79
2022/12/10 03:24:12;;;;;;;16.00;11.27;;;1.50;93.30;;;;;;944017;147;27309;-79
2022/12/10 03:26:39;;;;;;;17.43;12.57;;;1.40;93.40;;;;;;936725;149;27368;-79
2022/12/10 03:29:06;;;;;;;15.80;12.17;;;1.40;93.40;;;;;;934485;149;27361;-79
2022/12/10 03:31:32;;;;;;;16.37;11.50;;;1.40;93.50;;;;;;936550;149;27452;-79
2022/12/10 03:33:59;;;;;;;16.47;11.80;;;1.40;93.60;;;;;;935970;149;27352;-79
2022/12/10 03:36:25;;;;;;;16.43;12.07;;;1.30;94.10;;;;;;947002;148;27316;-79
2022/12/10 03:38:52;;;;;;;19.17;11.97;;;1.30;93.90;;;;;;937397;149;27344;-79
2022/12/10 03:41:19;;;;;;;15.43;12.30;;;1.30;94.00;;;;;;938412;148;27483;-79
2022/12/10 03:43:51;;;;;;;16.70;11.50;;;1.20;94.00;;;;;;953842;146;27440;-79
2022/12/10 03:46:18;;;;;;;19.17;12.00;;;1.20;94.10;;;;;;937270;148;27417;-79
2022/12/10 03:48:44;;;;;;;17.77;12.57;;;1.20;94.20;;;;;;936079;149;27459;-79
2022/12/10 03:51:11;;;;;;;16.60;12.40;;;1.20;94.30;;;;;;954543;146;27345;-79
2022/12/10 03:53:38;;;;;;;17.37;12.27;;;1.20;94.40;;;;;;939980;148;27414;-79
2022/12/10 03:56:04;;;;;;;15.70;11.33;;;1.20;94.50;;;;;;956240;148;27843;-80
2022/12/10 03:58:31;;;;;;;16.37;11.53;;;1.10;94.60;;;;;;936083;149;27369;-80
2022/12/10 04:00:58;;;;;;;15.30;11.60;;;1.10;94.60;;;;;;939720;148;27326;-80
2022/12/10 04:03:24;;;;;;;16.43;12.50;;;1.10;94.70;;;;;;954525;145;27302;-80
2022/12/10 04:05:50;;;;;;;15.90;11.90;;;1.10;94.70;;;;;;933321;149;27480;-80
2022/12/10 04:08:17;;;;;;;16.77;12.20;;;1.10;94.80;;;;;;953741;146;27386;-80
2022/12/10 04:10:44;;;;;;;16.37;12.17;;;1.10;94.90;;;;;;932247;152;27381;-80
2022/12/10 04:18:40;;;;;;;15.80;12.30;;;1.00;95.00;;;;;;955673;146;27766;-80
2022/12/10 04:26:54;;;;;;;16.83;12.13;;;0.90;95.10;;;;;;955185;148;27465;-82
2022/12/10 04:29:20;;;;;;;18.13;12.77;;;0.90;95.20;;;;;;954562;146;27423;-82
2022/12/10 04:31:47;;;;;;;16.60;11.67;;;0.80;95.20;;;;;;954411;148;27333;-82
2022/12/10 04:34:14;;;;;;;17.63;12.20;;;0.80;95.30;;;;;;955139;146;27394;-82
2022/12/10 04:36:40;;;;;;;16.30;11.33;;;0.80;95.40;;;;;;954199;148;27451;-82
2022/12/10 04:39:07;;;;;;;16.90;12.03;;;0.70;95.40;;;;;;955471;148;27411;-82
2022/12/10 04:41:33;;;;;;;18.17;12.93;;;0.70;95.50;;;;;;956463;146;27387;-82
2022/12/10 04:44:00;;;;;;;16.17;11.70;;;0.70;95.50;;;;;;954358;146;27325;-82
2022/12/10 04:46:26;;;;;;;15.70;11.47;;;0.70;95.60;;;;;;955909;148;27285;-82
2022/12/10 04:48:53;;;;;;;17.63;11.87;;;0.70;95.70;;;;;;954840;148;27360;-82
2022/12/10 04:51:20;;;;;;;15.50;11.90;;;0.70;95.70;;;;;;954841;148;27343;-82
2022/12/10 04:53:46;;;;;;;18.93;12.10;;;0.70;95.70;;;;;;953637;145;27337;-82
2022/12/10 04:56:13;;;;;;;16.47;12.63;;;0.70;95.70;;;;;;950948;146;27357;-82
2022/12/10 04:58:39;;;;;;;17.63;12.43;;;0.70;95.80;;;;;;917691;150;27348;-82
2022/12/10 05:01:06;;;;;;;15.10;11.70;;;0.70;95.90;;;;;;942195;147;27274;-82
2022/12/10 05:03:33;;;;;;;17.43;12.47;;;0.60;95.90;;;;;;917727;150;27400;-82
2022/12/10 05:06:02;;;;;;;17.17;12.37;;;0.60;96.00;;;;;;940635;147;27334;-82
2022/12/10 05:08:29;;;;;;;18.23;12.13;;;0.60;96.00;;;;;;939827;147;27333;-82
2022/12/10 05:10:55;;;;;;;15.60;12.13;;;0.60;96.10;;;;;;935096;149;27285;-82
2022/12/10 05:13:22;;;;;;;18.00;12.63;;;0.60;96.10;;;;;;935293;149;27266;-82
2022/12/10 05:15:48;;;;;;;17.17;12.13;;;0.70;96.20;;;;;;933913;149;27373;-82
2022/12/10 05:18:15;;;;;;;15.33;11.57;;;0.70;96.30;;;;;;942014;147;27348;-82
2022/12/10 05:20:42;;;;;;;17.30;12.33;;;0.60;96.40;;;;;;942075;147;27351;-82
2022/12/10 05:26:02;;;;;;;21.17;12.20;;;0.70;96.70;;;;;;934329;148;27329;-82
2022/12/10 05:28:28;;;;;;;18.33;12.13;;;0.70;96.80;;;;;;933407;149;27436;-80
2022/12/10 05:30:55;;;;;;;15.37;12.50;;;0.70;97.00;;;;;;932481;148;27489;-80
2022/12/10 05:33:21;;;;;;;15.57;11.60;;;0.70;96.90;;;;;;935953;149;27747;-79
2022/12/10 05:35:57;;;;;;;15.67;11.57;;;0.80;97.40;;;;;;936512;148;27307;-79
2022/12/10 05:38:23;;;;;;;16.83;12.03;;;0.80;97.60;;;;;;936640;149;27358;-80
2022/12/10 05:40:50;;;;;;;17.70;11.50;;;0.90;97.70;;;;;;934775;146;27802;-80
2022/12/10 05:43:16;;;;;;;17.40;11.83;;;0.90;97.80;;;;;;935571;149;27488;-80
2022/12/10 05:45:43;;;;;;;15.23;11.63;;;1.00;97.90;;;;;;934472;148;27322;-80
2022/12/10 05:48:10;;;;;;;17.17;13.03;;;1.10;98.00;;;;;;934987;149;27327;-80
2022/12/10 05:50:36;;;;;;;16.97;12.10;;;1.10;97.90;;;;;;942009;147;27266;-82
2022/12/10 05:53:03;;;;;;;16.30;11.70;;;1.20;97.90;;;;;;944148;147;27386;-82
2022/12/10 05:55:31;;;;;;;17.97;12.33;;;1.30;98.00;;;;;;919075;150;27436;-82
2022/12/10 05:57:56;;;;;;;15.53;12.20;;;1.30;97.80;;;;;;941320;147;27399;-82
2022/12/10 06:00:23;;;;;;;15.80;12.00;;;1.40;97.80;;;;;;917391;150;27313;-82
2022/12/10 06:02:49;;;;;;;15.83;11.37;;;1.40;97.70;;;;;;942138;147;27285;-82
2022/12/10 06:05:16;;;;;;;16.13;11.17;;;1.50;97.70;;;;;;940921;147;27281;-82
2022/12/10 06:07:42;;;;;;;16.50;11.77;;;1.50;97.60;;;;;;919874;150;27397;-82
2022/12/10 06:10:09;;;;;;;14.17;11.53;;;1.60;97.60;;;;;;942117;147;27538;-82
2022/12/10 06:12:36;;;;;;;15.23;11.43;;;1.60;97.50;;;;;;916602;150;27930;-82
2022/12/10 06:15:02;;;;;;;18.47;13.30;;;1.70;97.50;;;;;;916333;150;27498;-82
2022/12/10 06:17:29;;;;;;;17.23;12.57;;;1.70;97.50;;;;;;919176;150;27398;-82
2022/12/10 06:19:55;;;;;;;16.10;11.17;;;1.70;97.40;;;;;;917828;150;27472;-82
2022/12/10 06:22:22;;;;;;;16.10;12.10;;;1.80;97.40;;;;;;919446;150;27402;-82
2022/12/10 06:24:48;;;;;;;19.47;13.23;;;1.80;97.40;;;;;;919079;150;27406;-82
2022/12/10 06:27:15;;;;;;;18.77;13.33;;;1.90;97.50;;;;;;916190;150;27453;-82
2022/12/10 06:29:42;;;;;;;16.20;11.90;;;1.90;97.40;;;;;;919672;150;27307;-82
2022/12/10 06:32:08;;;;;;;16.20;11.90;;;1.90;97.40;;;;;;917437;150;27400;-82
2022/12/10 06:34:35;;;;;;;14.70;11.97;;;2.00;97.30;;;;;;918857;150;27407;-82
2022/12/10 06:37:01;;;;;;;15.13;11.40;;;2.00;96.90;;;;;;917713;150;27319;-82
2022/12/10 06:39:28;;;;;;;15.90;12.20;;;2.10;97.20;;;;;;918987;150;27288;-82
2022/12/10 06:41:55;;;;;;;18.03;12.67;;;2.10;97.10;;;;;;917915;150;27355;-81
2022/12/10 06:44:21;;;;;;;17.17;12.30;;;2.10;97.10;;;;;;919349;150;27374;-81
2022/12/10 06:46:48;;;;;;;15.03;12.67;;;2.20;97.00;;;;;;917689;150;27372;-81
2022/12/10 06:49:14;;;;;;;18.07;12.80;;;2.20;96.90;;;;;;917186;150;27280;-81
2022/12/10 06:51:41;;;;;;;16.60;12.90;;;2.20;96.80;;;;;;918962;150;27768;-81
2022/12/10 06:54:08;;;;;;;15.80;12.03;;;2.20;96.80;;;;;;918022;150;27299;-81
2022/12/10 06:56:34;;;;;;;17.20;12.43;;;2.30;96.80;;;;;;931478;150;27889;-81
2022/12/10 06:59:01;;;;;;;17.00;12.60;;;2.20;96.90;;;;;;940858;147;27344;-81
2022/12/10 07:01:27;;;;;;;17.40;13.50;;;2.30;97.00;;;;;;925481;150;27505;-81
2022/12/10 07:03:55;;;;;;;15.67;11.80;;;2.30;97.10;;;;;;926387;149;27390;-81
2022/12/10 07:06:20;;;;;;;19.30;12.73;;;2.40;97.10;;;;;;917980;151;27444;-81
2022/12/10 07:08:47;;;;;;;17.43;12.73;;;2.40;97.10;;;;;;918415;151;27323;-81
2022/12/10 07:11:14;;;;;;;16.40;12.90;;;2.50;97.10;;;;;;939257;147;27362;-81
2022/12/10 07:13:40;;;;;;;16.17;12.57;;;2.50;97.20;;;;;;943945;147;27395;-81
2022/12/10 07:16:19;;;;;;;17.70;13.47;;;2.50;97.10;;;;;;933347;149;27427;-81
2022/12/10 07:18:45;;;;;;;15.53;11.93;;;2.60;97.10;;;;;;941789;147;27287;-81
2022/12/10 07:21:15;;;;;;;18.43;12.47;;;2.60;97.00;;;;;;935866;150;27309;-81
2022/12/10 07:23:42;;;;;;;15.17;12.07;;;2.70;97.00;;;;;;924930;150;27481;-81
2022/12/10 07:26:08;;;;;;;17.50;12.07;;;2.70;97.00;;;;;;936727;149;27842;-81
2022/12/10 07:28:35;;;;;;;16.37;12.43;;;2.80;96.90;;;;;;926102;150;27442;-81
2022/12/10 07:31:01;;;;;;;16.63;12.80;;;2.80;96.90;;;;;;937811;150;27288;-81
2022/12/10 07:33:28;;;;;;;15.60;12.47;;;2.90;96.80;;;;;;940954;147;27295;-81
2022/12/10 07:35:54;;;;;;;16.80;12.00;;;2.90;96.80;;;;;;925855;150;27388;-81
2022/12/10 07:38:21;;;;;;;16.07;12.70;;;3.00;96.80;;;;;;919191;150;27364;-81
2022/12/10 07:40:48;;;;;;;15.27;11.33;;;3.00;96.70;;;;;;934082;149;27329;-81
2022/12/10 07:43:14;;;;;;;15.63;11.57;;;3.00;96.60;;;;;;939710;147;27354;-81
2022/12/10 07:45:41;;;;;;;15.93;12.63;;;3.10;96.50;;;;;;934134;149;27314;-81
2022/12/10 07:48:07;;;;;;;13.63;11.37;;;3.10;96.40;;;;;;934529;149;27315;-81
2022/12/10 07:50:34;;;;;;;17.17;11.93;;;3.20;96.30;;;;;;932923;149;27386;-81
2022/12/10 07:53:00;;;;;;;15.37;12.27;;;3.20;96.30;;;;;;941714;147;27334;-80
2022/12/10 07:55:27;;;;;;;16.67;12.13;;;3.20;96.40;;;;;;941212;147;27283;-81
2022/12/10 07:57:54;;;;;;;17.60;11.80;;;3.30;96.40;;;;;;937335;149;27310;-80
2022/12/10 08:00:20;;;;;;;16.97;12.80;;;3.30;96.40;;;;;;952562;146;27356;-80
2022/12/10 08:02:47;;;;;;;16.17;12.17;;;3.40;96.50;;;;;;934685;149;27389;-80
2022/12/10 08:05:13;;;;;;;15.53;12.00;;;3.40;96.50;;;;;;954914;146;27374;-80
2022/12/10 08:07:40;;;;;;;16.93;13.23;;;3.50;96.50;;;;;;938284;151;27293;-82
2022/12/10 08:10:07;;;;;;;15.77;12.10;;;3.50;96.50;;;;;;938511;148;27424;-82
2022/12/10 08:12:33;;;;;;;17.10;12.20;;;3.60;96.40;;;;;;937677;149;27898;-82
2022/12/10 08:15:02;;;;;;;15.93;12.17;;;3.60;96.40;;;;;;935603;149;27390;-82
2022/12/10 08:17:26;;;;;;;18.90;12.90;;;3.70;96.40;;;;;;954160;146;27348;-82
2022/12/10 08:19:54;;;;;;;17.53;13.77;;;3.80;96.40;;;;;;954907;146;27291;-82
2022/12/10 08:22:20;;;;;;;20.60;14.47;;;3.80;96.40;;;;;;955849;146;27300;-82
2022/12/10 08:24:46;;;;;;;20.93;15.47;;;3.90;96.40;;;;;;954415;146;27344;-82
2022/12/10 08:27:13;;;;;;;19.80;15.30;;;4.00;96.50;;;;;;956730;146;27381;-82
2022/12/10 08:29:39;;;;;;;18.43;14.83;;;4.10;96.40;;;;;;954228;145;27329;-82
2022/12/10 08:32:06;;;;;;;16.13;12.93;;;4.10;96.40;;;;;;943405;148;27332;-82
2022/12/10 08:34:32;;;;;;;18.33;14.63;;;4.20;96.20;;;;;;955234;145;27841;-82
2022/12/10 08:36:59;;;;;;;16.37;12.97;;;4.30;96.20;;;;;;938391;148;27761;-82
2022/12/10 08:39:26;;;;;;;17.90;13.83;;;4.30;96.00;;;;;;957109;145;27330;-82
2022/12/10 08:41:52;;;;;;;17.20;13.93;;;4.40;95.90;;;;;;959814;145;27339;-82
2022/12/10 08:44:19;;;;;;;18.33;13.33;;;4.50;95.90;;;;;;957057;146;27423;-82
2022/12/10 08:46:45;;;;;;;18.60;13.83;;;4.50;95.80;;;;;;956433;145;27399;-82
2022/12/10 08:49:12;;;;;;;19.37;13.90;;;4.60;95.70;;;;;;954062;146;27367;-82
2022/12/10 08:51:39;;;;;;;15.93;13.23;;;4.70;95.60;;;;;;955024;145;27402;-82
2022/12/10 08:54:05;;;;;;;16.93;12.90;;;4.70;95.50;;;;;;934104;149;27501;-82
2022/12/10 08:56:32;;;;;;;15.60;12.57;;;4.80;95.50;;;;;;955574;146;27930;-82
2022/12/10 08:58:58;;;;;;;17.70;12.63;;;4.90;95.50;;;;;;938935;148;27282;-82
2022/12/10 09:01:25;;;;;;;15.47;12.70;;;4.90;95.50;;;;;;938469;148;27331;-82
2022/12/10 09:03:52;;;;;;;16.67;12.43;;;5.00;95.50;;;;;;938982;148;27296;-82
2022/12/10 09:06:18;;;;;;;16.93;13.13;;;5.10;95.60;;;;;;954725;146;27355;-82
2022/12/10 09:08:45;;;;;;;18.83;14.00;;;5.20;95.60;;;;;;954553;145;27395;-82
2022/12/10 09:11:14;;;;;;;16.87;13.37;;;5.30;95.60;;;;;;949905;147;27471;-82
2022/12/10 09:13:41;;;;;;;16.43;12.97;;;5.40;95.50;;;;;;955103;145;27322;-82
2022/12/10 09:16:07;;;;;;;16.20;13.63;;;5.50;95.30;;;;;;938173;149;27368;-82
2022/12/10 09:18:34;;;;;;;18.50;13.90;;;5.50;94.80;;;;;;955412;146;27409;-82
2022/12/10 09:21:01;;;;;;;16.77;13.23;;;5.60;94.50;;;;;;956191;146;27423;-83
2022/12/10 09:23:27;;;;;;;15.73;13.17;;;5.70;94.20;;;;;;954321;146;27407;-82
2022/12/10 09:25:54;;;;;;;17.13;13.87;;;5.70;93.90;;;;;;952912;146;27328;-82
2022/12/10 09:28:20;;;;;;;16.77;13.60;;;5.70;93.80;;;;;;953255;146;27409;-82
2022/12/10 09:30:47;;;;;;;16.87;12.90;;;5.80;93.70;;;;;;952934;146;27744;-82
2022/12/10 09:33:14;;;;;;;17.00;12.93;;;5.80;93.70;;;;;;954311;146;27338;-82
2022/12/10 09:35:41;;;;;;;15.30;11.90;;;5.80;93.70;;;;;;957020;146;27425;-82
2022/12/10 09:38:07;;;;;;;15.33;13.27;;;5.90;93.50;;;;;;954785;146;27346;-82
2022/12/10 09:40:40;;;;;;;15.03;12.30;;;5.90;93.30;;;;;;952658;145;27320;-82
2022/12/10 09:43:32;;;;;;;15.03;11.97;;;6.00;93.60;;;;;;937814;149;27412;-83
2022/12/10 09:46:10;;;;;;;15.67;12.63;;;6.00;93.20;;;;;;954339;146;27375;-81
2022/12/10 09:48:40;;;;;;;13.73;12.00;;;6.00;93.00;;;;;;942289;148;27301;-81
2022/12/10 09:51:09;;;;;;;13.90;11.67;;;6.00;92.90;;;;;;946534;148;27375;-81
2022/12/10 09:53:35;;;;;;;14.00;12.10;;;6.00;92.70;;;;;;946809;145;27362;-81
2022/12/10 09:56:02;;;;;;;13.17;10.50;;;6.00;92.60;;;;;;937139;149;27359;-81
2022/12/10 09:58:29;;;;;;;16.13;11.70;;;6.10;92.90;;;;;;955509;146;28098;-81
2022/12/10 10:00:58;;;;;;;17.17;11.47;;;6.10;92.50;;;;;;934138;149;27411;-81
2022/12/10 10:03:24;;;;;;;13.40;11.60;;;6.10;92.60;;;;;;951544;146;27915;-81
2022/12/10 10:05:51;;;;;;;14.30;12.10;;;6.10;92.80;;;;;;955440;146;27358;-81
2022/12/10 10:08:30;;;;;;;13.27;11.43;;;6.10;93.00;;;;;;955639;146;27287;-81
2022/12/10 10:10:56;;;;;;;15.27;12.50;;;6.20;93.20;;;;;;955183;145;27266;-81
2022/12/10 10:13:35;;;;;;;13.93;12.17;;;6.20;93.20;;;;;;935237;149;27872;-81
2022/12/10 10:16:26;;;;;;;14.80;13.17;;;6.30;93.30;;;;;;955620;145;27331;-81
2022/12/10 10:18:55;;;;;;;15.83;12.33;;;6.30;92.90;;;;;;943313;148;27460;-81
2022/12/10 10:21:21;;;;;;;13.97;12.47;;;6.40;92.50;;;;;;937219;148;27346;-81
2022/12/10 10:23:48;;;;;;;16.77;13.40;;;6.40;92.10;;;;;;950221;148;27401;-81
2022/12/10 10:26:14;;;;;;;17.43;13.27;;;6.40;92.00;;;;;;938003;149;27387;-81
2022/12/10 10:28:41;;;;;;;16.10;13.93;;;6.40;91.80;;;;;;950801;148;27386;-80
2022/12/10 10:31:13;;;;;;;16.50;14.43;;;6.30;91.60;;;;;;954840;146;27322;-80
2022/12/10 10:33:50;;;;;;;15.50;12.83;;;6.30;91.40;;;;;;936227;148;27326;-81
2022/12/10 10:36:15;;;;;;;14.40;12.67;;;6.30;91.40;;;;;;936117;148;27339;-81
2022/12/10 10:38:42;;;;;;;16.40;13.17;;;6.20;91.80;;;;;;955779;145;27315;-81
2022/12/10 10:41:09;;;;;;;16.77;13.10;;;6.20;91.70;;;;;;939398;148;27752;-81
2022/12/10 10:43:41;;;;;;;15.20;12.80;;;6.20;91.80;;;;;;937774;148;27329;-81
2022/12/10 10:46:17;;;;;;;15.70;12.97;;;6.20;91.90;;;;;;952020;148;27373;-81
2022/12/10 10:48:43;;;;;;;14.50;12.60;;;6.20;91.90;;;;;;937556;148;27425;-81
2022/12/10 10:51:15;;;;;;;14.27;12.30;;;6.20;91.90;;;;;;954819;145;27315;-81
2022/12/10 10:53:40;;;;;;;14.70;12.13;;;6.20;91.80;;;;;;954112;146;27435;-81
2022/12/10 10:56:06;;;;;;;15.43;12.77;;;6.20;91.70;;;;;;933030;149;28315;-81
2022/12/10 10:58:32;;;;;;;16.80;12.93;;;6.20;91.60;;;;;;950229;145;27350;-81
2022/12/10 11:01:02;;;;;;;14.87;12.67;;;6.20;91.70;;;;;;917473;151;27412;-81
2022/12/10 11:03:28;;;;;;;13.07;11.70;;;6.20;91.70;;;;;;942288;147;27423;-81
2022/12/10 11:05:55;;;;;;;15.87;13.13;;;6.10;91.80;;;;;;921327;150;27372;-81
2022/12/10 11:08:21;;;;;;;15.47;13.00;;;6.10;91.80;;;;;;934361;149;29214;-81
2022/12/10 11:10:49;;;;;;;14.77;12.67;;;6.10;91.90;;;;;;935901;152;27390;-81
2022/12/10 11:13:24;;;;;;;15.03;13.10;;;6.10;92.00;;;;;;942723;147;27292;-81
2022/12/10 11:15:59;;;;;;;14.73;12.77;;;6.10;91.90;;;;;;926078;150;27436;-81
2022/12/10 11:18:29;;;;;;;16.37;13.10;;;6.10;91.90;;;;;;932195;147;27282;-81
2022/12/10 11:21:11;;;;;;;14.80;13.20;;;6.00;92.00;;;;;;936284;149;27366;-81
2022/12/10 11:23:38;;;;;;;15.10;12.93;;;6.00;91.90;;;;;;934852;149;27336;-82
2022/12/10 11:26:25;;;;;;;14.77;13.10;;;6.00;92.00;;;;;;940094;147;27415;-81
2022/12/10 11:29:10;;;;;;;16.70;13.30;;;6.00;92.00;;;;;;932921;149;27429;-81
2022/12/10 11:31:51;;;;;;;15.20;12.27;;;6.00;92.00;;;;;;923624;150;27920;-81
2022/12/10 11:34:21;;;;;;;15.27;11.93;;;6.00;92.10;;;;;;931791;150;27362;-81
2022/12/10 11:36:50;;;;;;;13.53;11.27;;;6.00;92.10;;;;;;941645;147;28083;-81
2022/12/10 11:39:35;;;;;;;13.50;11.10;;;6.00;92.10;;;;;;942944;147;27334;-81
2022/12/10 11:42:20;;;;;;;13.47;11.00;;;6.00;92.00;;;;;;926895;149;27360;-81
2022/12/10 11:44:58;;;;;;;12.57;11.17;;;6.00;91.90;;;;;;941794;147;27267;-81
2022/12/10 11:47:55;;;;;;;12.90;11.43;;;6.00;91.90;;;;;;940537;147;27344;-81
2022/12/10 11:50:24;;;;;;;13.90;11.50;;;6.00;91.90;;;;;;919653;150;27379;-81
2022/12/10 11:52:59;;;;;;;14.33;12.57;;;6.00;92.00;;;;;;941788;147;27398;-81
2022/12/10 11:55:45;;;;;;;16.13;13.23;;;6.00;92.00;;;;;;918458;150;27390;-81
2022/12/10 11:58:14;;;;;;;17.23;13.63;;;6.10;92.00;;;;;;936228;146;27266;-80
2022/12/10 12:00:43;;;;;;;13.20;11.47;;;6.10;92.00;;;;;;957913;145;27391;-80
2022/12/10 12:03:21;;;;;;;13.53;11.40;;;6.10;92.00;;;;;;939870;148;27419;-80
2022/12/10 12:05:57;;;;;;;13.17;11.40;;;6.10;92.00;;;;;;959077;144;27432;-80
2022/12/10 12:08:51;;;;;;;13.87;11.77;;;6.10;91.90;;;;;;939888;149;27407;-80
2022/12/10 12:11:36;;;;;;;13.90;11.50;;;6.10;91.90;;;;;;938494;148;27926;-80
2022/12/10 12:14:08;;;;;;;14.00;11.43;;;6.20;91.80;;;;;;957519;145;27370;-80
2022/12/10 12:16:35;;;;;;;14.87;12.43;;;6.20;91.80;;;;;;934264;149;27386;-81
2022/12/10 12:19:13;;;;;;;16.50;13.07;;;6.20;91.70;;;;;;939687;148;27408;-81
2022/12/10 12:21:40;;;;;;;14.20;11.73;;;6.20;91.60;;;;;;934183;149;27321;-81
2022/12/10 12:24:11;;;;;;;14.07;11.80;;;6.20;91.60;;;;;;954687;146;27386;-81
2022/12/10 12:26:39;;;;;;;14.03;11.70;;;6.20;91.40;;;;;;941386;149;27360;-80
2022/12/10 12:29:17;;;;;;;13.90;12.17;;;6.20;91.20;;;;;;936924;148;28580;-80
2022/12/10 12:31:44;;;;;;;13.73;11.77;;;6.20;91.10;;;;;;935945;148;27301;-80
2022/12/10 12:34:17;;;;;;;15.23;12.53;;;6.20;91.00;;;;;;954764;145;27285;-80
2022/12/10 12:36:43;;;;;;;13.27;10.80;;;6.10;90.90;;;;;;935494;148;27331;-80
2022/12/10 12:39:32;;;;;;;15.83;12.20;;;6.10;90.90;;;;;;954882;145;27289;-81
2022/12/10 12:42:04;;;;;;;13.60;11.80;;;6.10;90.90;;;;;;955070;146;27287;-81
2022/12/10 12:44:55;;;;;;;16.87;12.43;;;6.10;90.70;;;;;;938029;148;27376;-81
2022/12/10 12:47:24;;;;;;;15.30;12.47;;;6.00;90.70;;;;;;938944;148;27453;-81
2022/12/10 12:49:51;;;;;;;14.40;12.10;;;6.00;90.60;;;;;;956683;145;27305;-81
2022/12/10 12:52:32;;;;;;;15.97;12.80;;;5.90;90.20;;;;;;934438;149;27402;-81
2022/12/10 12:54:56;;;;;;;12.83;11.07;;;5.90;90.60;;;;;;954980;146;27375;-81
2022/12/10 12:57:44;;;;;;;13.67;12.00;;;5.90;90.70;;;;;;954263;146;27327;-81
2022/12/10 13:00:17;;;;;;;15.10;11.70;;;5.80;90.70;;;;;;952883;146;27443;-81